createdAt,value
2023-05-08T00:00:14.732Z,82.50
2023-05-08T00:02:19.947Z,82.70
2023-05-08T00:04:25.451Z,83.00
2023-05-08T00:06:31.407Z,83.10
2023-05-08T00:08:39.567Z,83.50
2023-05-08T00:10:44.986Z,82.90
2023-05-08T00:12:50.073Z,82.80
2023-05-08T00:14:55.450Z,83.00
2023-05-08T00:17:00.672Z,83.00
2023-05-08T00:19:06.029Z,82.90
2023-05-08T00:21:11.125Z,83.40
2023-05-08T00:23:16.187Z,83.60
2023-05-08T00:25:23.913Z,83.20
2023-05-08T00:27:29.083Z,83.20
2023-05-08T00:29:34.484Z,83.80
2023-05-08T00:31:39.668Z,83.40
2023-05-08T00:33:44.946Z,84.00
2023-05-08T00:35:50.209Z,83.70
2023-05-08T00:37:55.459Z,83.60
2023-05-08T00:40:00.540Z,83.70
2023-05-08T00:42:08.863Z,83.90
2023-05-08T00:44:14.161Z,83.60
2023-05-08T00:46:19.890Z,84.10
2023-05-08T00:48:25.990Z,83.70
2023-05-08T00:50:31.528Z,84.00
2023-05-08T00:52:37.347Z,84.30
2023-05-08T00:54:43.318Z,84.10
2023-05-08T00:56:49.021Z,84.10
2023-05-08T00:58:57.494Z,84.20
2023-05-08T01:01:03.856Z,84.30
2023-05-08T01:03:09.907Z,84.40
2023-05-08T01:05:15.318Z,84.40
2023-05-08T01:07:21.533Z,84.70
2023-05-08T01:09:27.478Z,84.60
2023-05-08T01:11:39.821Z,84.30
2023-05-08T01:14:01.511Z,84.50
2023-05-08T01:16:16.759Z,84.70
2023-05-08T01:18:31.449Z,84.40
2023-05-08T01:20:47.885Z,85.00
2023-05-08T01:23:43.042Z,85.10
2023-05-08T01:26:14.490Z,85.00
2023-05-08T01:28:57.356Z,84.80
2023-05-08T01:31:19.330Z,85.10
2023-05-08T01:33:33.179Z,85.60
2023-05-08T01:35:48.094Z,85.50
2023-05-08T01:38:00.855Z,84.80
2023-05-08T01:40:20.233Z,84.70
2023-05-08T01:42:35.889Z,85.50
2023-05-08T01:44:50.303Z,84.90
2023-05-08T01:46:56.699Z,84.90
2023-05-08T01:49:11.764Z,85.30
2023-05-08T01:51:23.586Z,85.10
2023-05-08T01:53:33.324Z,86.00
2023-05-08T01:55:42.521Z,84.90
2023-05-08T01:57:52.219Z,84.70
2023-05-08T01:59:59.029Z,85.20
2023-05-08T02:02:06.029Z,85.50
2023-05-08T02:04:15.480Z,85.50
2023-05-08T02:06:25.435Z,85.60
2023-05-08T02:08:32.391Z,85.80
2023-05-08T02:10:40.105Z,85.40
2023-05-08T02:12:47.534Z,85.60
2023-05-08T02:14:55.687Z,85.50
2023-05-08T02:17:03.016Z,85.60
2023-05-08T02:19:10.131Z,85.50
2023-05-08T02:21:18.230Z,85.70
2023-05-08T02:23:26.066Z,86.10
2023-05-08T02:25:33.828Z,86.30
2023-05-08T02:27:39.877Z,86.30
2023-05-08T02:29:45.994Z,86.80
2023-05-08T02:31:52.575Z,86.50
2023-05-08T02:33:58.310Z,86.60
2023-05-08T02:36:05.968Z,86.20
2023-05-08T02:38:17.189Z,86.60
2023-05-08T02:40:25.443Z,86.90
2023-05-08T02:42:30.833Z,86.80
2023-05-08T02:44:37.800Z,87.10
2023-05-08T02:46:52.352Z,87.20
2023-05-08T02:49:02.930Z,87.50
2023-05-08T02:51:22.175Z,87.40
2023-05-08T02:53:55.986Z,87.90
2023-05-08T02:56:13.097Z,87.40
2023-05-08T02:58:23.226Z,87.90
2023-05-08T03:00:35.446Z,87.80
2023-05-08T03:02:45.085Z,88.10
2023-05-08T03:04:56.085Z,88.20
2023-05-08T03:07:02.284Z,88.50
2023-05-08T03:09:15.161Z,88.30
2023-05-08T03:11:27.176Z,88.20
2023-05-08T03:13:37.247Z,88.40
2023-05-08T03:15:48.298Z,88.30
2023-05-08T03:17:58.090Z,88.00
2023-05-08T03:20:08.413Z,88.20
2023-05-08T03:22:14.337Z,88.50
2023-05-08T03:24:25.435Z,88.00
2023-05-08T03:26:31.255Z,88.50
2023-05-08T03:28:38.408Z,88.50
2023-05-08T03:30:45.263Z,88.50
2023-05-08T03:32:54.190Z,88.30
2023-05-08T03:35:03.962Z,88.50
2023-05-08T03:37:09.413Z,88.30
2023-05-08T03:39:15.058Z,88.60
2023-05-08T03:41:22.876Z,88.40
2023-05-08T03:43:28.900Z,89.00
2023-05-08T03:45:39.256Z,89.20
2023-05-08T03:47:45.221Z,89.00
2023-05-08T03:49:53.285Z,88.90
2023-05-08T03:51:59.819Z,89.20
2023-05-08T03:54:05.397Z,89.10
2023-05-08T03:56:11.017Z,89.20
2023-05-08T03:58:26.497Z,89.10
2023-05-08T04:00:52.867Z,88.90
2023-05-08T04:03:14.314Z,88.90
2023-05-08T04:05:28.924Z,89.00
2023-05-08T04:07:43.809Z,88.80
2023-05-08T04:10:03.113Z,89.40
2023-05-08T04:12:17.969Z,88.90
2023-05-08T04:14:33.387Z,88.80
2023-05-08T04:16:42.920Z,88.90
2023-05-08T04:18:51.184Z,89.00
2023-05-08T04:20:58.569Z,88.70
2023-05-08T04:23:06.911Z,88.80
2023-05-08T04:25:14.242Z,88.90
2023-05-08T04:27:19.926Z,89.10
2023-05-08T04:29:28.026Z,88.80
2023-05-08T04:31:33.819Z,88.70
2023-05-08T04:33:39.447Z,88.90
2023-05-08T04:35:46.206Z,88.80
2023-05-08T04:37:51.804Z,88.80
2023-05-08T04:39:57.145Z,88.60
2023-05-08T04:42:04.863Z,88.80
2023-05-08T04:44:13.107Z,88.50
2023-05-08T04:46:21.108Z,88.30
2023-05-08T04:48:26.601Z,87.90
2023-05-08T04:50:31.971Z,88.10
2023-05-08T04:52:37.043Z,88.60
2023-05-08T04:54:42.578Z,88.40
2023-05-08T04:56:47.945Z,88.50
2023-05-08T04:58:53.480Z,88.20
2023-05-08T05:00:59.187Z,88.60
2023-05-08T05:03:08.059Z,88.30
2023-05-08T05:05:14.041Z,88.00
2023-05-08T05:07:19.541Z,88.40
2023-05-08T05:09:25.885Z,88.20
2023-05-08T05:11:31.448Z,87.20
2023-05-08T05:13:36.614Z,87.60
2023-05-08T05:15:45.970Z,87.90
2023-05-08T05:17:52.197Z,87.30
2023-05-08T05:20:00.444Z,87.20
2023-05-08T05:22:06.365Z,86.70
2023-05-08T05:24:12.425Z,86.20
2023-05-08T05:26:17.707Z,85.90
2023-05-08T05:28:22.757Z,86.30
2023-05-08T05:30:28.419Z,86.10
2023-05-08T05:32:33.657Z,86.50
2023-05-08T05:34:39.032Z,85.60
2023-05-08T05:36:47.353Z,85.90
2023-05-08T05:38:52.481Z,86.10
2023-05-08T05:40:57.983Z,85.70
2023-05-08T05:43:03.257Z,85.00
2023-05-08T05:45:11.723Z,85.90
2023-05-08T05:47:17.675Z,85.90
2023-05-08T05:49:22.782Z,84.90
2023-05-08T05:51:29.438Z,84.40
2023-05-08T05:53:37.841Z,84.40
2023-05-08T05:55:44.317Z,84.00
2023-05-08T05:57:49.367Z,84.20
2023-05-08T05:59:54.997Z,85.10
2023-05-08T06:02:02.161Z,84.60
2023-05-08T06:04:08.250Z,83.70
2023-05-08T06:06:13.712Z,83.40
2023-05-08T06:08:19.244Z,83.50
2023-05-08T06:10:26.985Z,83.40
2023-05-08T06:12:32.033Z,82.60
2023-05-08T06:14:38.213Z,81.60
2023-05-08T06:16:45.133Z,82.70
2023-05-08T06:18:50.381Z,82.10
2023-05-08T06:21:00.493Z,81.90
2023-05-08T06:23:05.708Z,81.20
2023-05-08T06:25:12.957Z,80.80
2023-05-08T06:27:20.970Z,81.20
2023-05-08T06:29:26.268Z,81.70
2023-05-08T06:31:31.400Z,81.00
2023-05-08T06:33:36.523Z,80.90
2023-05-08T06:35:41.584Z,82.40
2023-05-08T06:37:46.744Z,81.90
2023-05-08T06:40:03.968Z,81.90
2023-05-08T06:42:16.840Z,80.70
2023-05-08T06:44:26.862Z,81.50
2023-05-08T06:46:32.720Z,80.10
2023-05-08T06:48:37.834Z,80.90
2023-05-08T06:50:44.019Z,81.80
2023-05-08T06:52:49.088Z,79.90
2023-05-08T06:54:54.154Z,81.20
2023-05-08T06:56:59.195Z,79.70
2023-05-08T06:59:08.486Z,80.70
2023-05-08T07:01:17.840Z,79.60
2023-05-08T07:03:22.977Z,79.10
2023-05-08T07:05:28.276Z,78.60
2023-05-08T07:07:33.329Z,80.00
2023-05-08T07:09:38.664Z,78.90
2023-05-08T07:11:44.064Z,78.70
2023-05-08T07:13:49.157Z,78.50
2023-05-08T07:15:55.364Z,78.50
2023-05-08T07:18:03.330Z,77.80
2023-05-08T07:20:10.801Z,78.10
2023-05-08T07:22:15.952Z,78.20
2023-05-08T07:24:21.067Z,78.50
2023-05-08T07:26:26.202Z,77.60
2023-05-08T07:28:31.375Z,79.30
2023-05-08T07:30:36.704Z,77.60
2023-05-08T07:32:41.916Z,76.20
2023-05-08T07:34:49.608Z,77.30
2023-05-08T07:36:55.135Z,75.70
2023-05-08T07:39:00.143Z,77.40
2023-05-08T07:41:05.540Z,75.90
2023-05-08T07:43:10.666Z,76.70
2023-05-08T07:45:17.028Z,74.50
2023-05-08T07:47:22.599Z,74.30
2023-05-08T07:49:27.823Z,72.40
2023-05-08T07:51:35.471Z,74.40
2023-05-08T07:53:40.511Z,74.60
2023-05-08T07:55:45.819Z,73.30
2023-05-08T07:57:51.217Z,73.80
2023-05-08T07:59:56.233Z,71.60
2023-05-08T08:02:01.536Z,72.90
2023-05-08T08:04:08.433Z,75.00
2023-05-08T08:06:13.627Z,73.30
2023-05-08T08:08:21.573Z,70.60
2023-05-08T08:10:27.466Z,71.40
2023-05-08T08:12:32.646Z,73.50
2023-05-08T08:14:37.680Z,71.70
2023-05-08T08:16:43.107Z,74.00
2023-05-08T08:18:48.202Z,70.30
2023-05-08T08:20:53.234Z,70.10
2023-05-08T08:22:58.751Z,73.50
2023-05-08T08:25:07.091Z,72.70
2023-05-08T08:27:12.101Z,69.30
2023-05-08T08:29:17.692Z,67.20
2023-05-08T08:31:22.879Z,67.60
2023-05-08T08:33:29.938Z,69.40
2023-05-08T08:35:36.234Z,68.50
2023-05-08T08:37:42.189Z,68.00
2023-05-08T08:39:48.424Z,68.10
2023-05-08T08:41:56.305Z,67.10
2023-05-08T08:44:01.538Z,70.70
2023-05-08T08:46:14.765Z,69.20
2023-05-08T08:48:21.928Z,68.00
2023-05-08T08:50:29.089Z,63.90
2023-05-08T08:52:42.161Z,67.00
2023-05-08T08:54:50.081Z,65.90
2023-05-08T08:56:59.931Z,63.30
2023-05-08T08:59:05.962Z,63.10
2023-05-08T09:01:12.297Z,63.00
2023-05-08T09:03:17.926Z,63.80
2023-05-08T09:05:26.680Z,64.60
2023-05-08T09:07:33.047Z,62.80
2023-05-08T09:09:40.998Z,66.00
2023-05-08T09:11:48.867Z,62.80
2023-05-08T09:13:58.264Z,65.10
2023-05-08T09:16:03.806Z,63.30
2023-05-08T09:18:09.395Z,58.40
2023-05-08T09:20:18.453Z,62.90
2023-05-08T09:22:24.561Z,65.70
2023-05-08T09:24:31.106Z,60.90
2023-05-08T09:26:38.660Z,64.60
2023-05-08T09:28:43.676Z,62.30
2023-05-08T09:30:57.195Z,64.00
2023-05-08T09:33:05.613Z,61.00
2023-05-08T09:35:13.261Z,62.60
2023-05-08T09:37:19.052Z,63.30
2023-05-08T09:39:29.569Z,62.50
2023-05-08T09:41:34.577Z,65.20
2023-05-08T09:43:39.738Z,63.40
2023-05-08T09:45:44.809Z,61.90
2023-05-08T09:47:53.905Z,62.30
2023-05-08T09:50:03.141Z,64.80
2023-05-08T09:52:08.597Z,62.10
2023-05-08T09:54:21.211Z,60.50
2023-05-08T09:56:38.076Z,63.60
2023-05-08T09:58:45.448Z,62.70
2023-05-08T10:00:50.936Z,60.70
2023-05-08T10:03:03.718Z,63.00
2023-05-08T10:05:27.309Z,60.90
2023-05-08T10:07:33.511Z,60.10
2023-05-08T10:09:49.932Z,59.90
2023-05-08T10:11:56.788Z,62.30
2023-05-08T10:14:02.192Z,59.70
2023-05-08T10:16:09.095Z,61.30
2023-05-08T10:18:20.518Z,63.40
2023-05-08T10:20:30.505Z,62.70
2023-05-08T10:22:40.041Z,60.20
2023-05-08T10:24:50.594Z,62.60
2023-05-08T10:27:06.271Z,60.10
2023-05-08T10:29:20.800Z,65.20
2023-05-08T10:31:31.288Z,61.80
2023-05-08T10:33:43.146Z,59.80
2023-05-08T10:35:48.808Z,61.00
2023-05-08T10:37:54.949Z,58.30
2023-05-08T10:40:01.213Z,63.30
2023-05-08T10:42:08.031Z,58.60
2023-05-08T10:44:13.740Z,58.50
2023-05-08T10:46:36.858Z,60.40
2023-05-08T10:48:56.920Z,60.60
2023-05-08T10:51:12.279Z,60.50
2023-05-08T10:53:23.488Z,58.40
2023-05-08T10:55:33.673Z,58.90
2023-05-08T10:57:39.210Z,60.20
2023-05-08T10:59:48.709Z,57.60
2023-05-08T11:01:53.991Z,60.00
2023-05-08T11:04:01.857Z,63.30
2023-05-08T11:06:07.685Z,57.30
2023-05-08T11:08:19.363Z,59.20
2023-05-08T11:10:32.416Z,60.90
2023-05-08T11:12:38.281Z,62.80
2023-05-08T11:14:45.754Z,59.80
2023-05-08T11:17:11.290Z,62.30
2023-05-08T11:19:23.224Z,60.30
2023-05-08T11:21:28.272Z,62.90
2023-05-08T11:23:34.318Z,62.60
2023-05-08T11:25:46.285Z,65.10
2023-05-08T11:28:12.980Z,64.70
2023-05-08T11:30:27.093Z,65.20
2023-05-08T11:33:17.921Z,62.80
2023-05-08T11:35:45.078Z,66.70
2023-05-08T11:38:21.400Z,66.60
2023-05-08T11:40:53.310Z,66.20
2023-05-08T11:42:59.554Z,65.00
2023-05-08T11:45:09.394Z,66.40
2023-05-08T11:47:21.881Z,66.70
2023-05-08T11:49:30.261Z,66.10
2023-05-08T11:51:45.013Z,67.00
2023-05-08T11:53:50.610Z,67.80
2023-05-08T11:55:57.090Z,66.10
2023-05-08T11:58:02.116Z,68.10
2023-05-08T12:00:09.103Z,68.10
2023-05-08T12:02:14.148Z,67.30
2023-05-08T12:04:19.369Z,67.70
2023-05-08T12:06:24.781Z,66.90
2023-05-08T12:08:32.477Z,66.30
2023-05-08T12:10:45.028Z,67.70
2023-05-08T12:12:51.770Z,67.70
2023-05-08T12:14:57.106Z,67.60
2023-05-08T12:17:02.521Z,66.40
2023-05-08T12:19:13.640Z,66.40
2023-05-08T12:21:18.929Z,66.70
2023-05-08T12:23:24.062Z,68.10
2023-05-08T12:25:31.985Z,67.40
2023-05-08T12:27:37.102Z,68.70
2023-05-08T12:29:42.118Z,67.90
2023-05-08T12:31:47.270Z,70.20
2023-05-08T12:33:52.622Z,68.60
2023-05-08T12:35:58.526Z,69.90
2023-05-08T12:38:09.855Z,68.70
2023-05-08T12:40:32.141Z,70.10
2023-05-08T12:42:46.966Z,67.30
2023-05-08T12:44:56.447Z,68.20
2023-05-08T12:47:01.835Z,67.70
2023-05-08T12:49:10.591Z,69.90
2023-05-08T12:51:15.832Z,69.50
2023-05-08T12:53:23.199Z,71.00
2023-05-08T12:55:33.003Z,70.50
2023-05-08T12:57:40.433Z,68.70
2023-05-08T12:59:47.261Z,72.30
2023-05-08T13:01:53.925Z,71.20
2023-05-08T13:04:02.193Z,71.00
2023-05-08T13:06:08.974Z,73.20
2023-05-08T13:08:14.581Z,72.10
2023-05-08T13:10:23.481Z,72.70
2023-05-08T13:12:32.394Z,72.50
2023-05-08T13:14:37.686Z,75.20
2023-05-08T13:16:48.090Z,76.40
2023-05-08T13:18:53.214Z,77.00
2023-05-08T13:20:58.504Z,75.40
2023-05-08T13:23:03.836Z,73.70
2023-05-08T13:25:11.273Z,75.50
2023-05-08T13:27:16.508Z,76.50
2023-05-08T13:29:24.391Z,72.30
2023-05-08T13:31:29.428Z,76.10
2023-05-08T13:33:34.716Z,74.00
2023-05-08T13:35:39.825Z,76.80
2023-05-08T13:37:44.862Z,73.30
2023-05-08T13:39:49.919Z,71.20
2023-05-08T13:41:54.933Z,68.60
2023-05-08T13:43:59.958Z,72.40
2023-05-08T13:46:08.236Z,72.40
2023-05-08T13:48:13.335Z,68.50
2023-05-08T13:50:21.963Z,69.40
2023-05-08T13:52:29.456Z,70.00
2023-05-08T13:54:34.460Z,66.00
2023-05-08T13:56:39.557Z,68.00
2023-05-08T13:58:44.596Z,67.20
2023-05-08T14:00:50.061Z,64.90
2023-05-08T14:02:57.855Z,63.00
2023-05-08T14:05:03.042Z,62.10
2023-05-08T14:07:08.588Z,59.00
2023-05-08T14:09:13.635Z,65.50
2023-05-08T14:11:18.666Z,59.80
2023-05-08T14:13:24.096Z,54.00
2023-05-08T14:15:36.418Z,54.20
2023-05-08T14:17:43.207Z,56.60
2023-05-08T14:19:50.892Z,58.10
2023-05-08T14:21:56.014Z,57.00
2023-05-08T14:24:01.415Z,57.80
2023-05-08T14:26:06.658Z,57.80
2023-05-08T14:28:11.924Z,53.30
2023-05-08T14:30:17.788Z,57.70
2023-05-08T14:32:22.940Z,53.20
2023-05-08T14:34:28.172Z,54.80
2023-05-08T14:36:35.891Z,55.00
2023-05-08T14:38:41.469Z,53.50
2023-05-08T14:40:46.518Z,57.00
2023-05-08T14:42:51.801Z,54.20
2023-05-08T14:44:58.092Z,51.70
2023-05-08T14:47:03.256Z,52.30
2023-05-08T14:49:08.771Z,53.60
2023-05-08T14:51:14.505Z,51.90
2023-05-08T14:53:22.579Z,48.80
2023-05-08T14:55:28.076Z,52.10
2023-05-08T14:57:33.666Z,51.40
2023-05-08T14:59:45.861Z,54.30
2023-05-08T15:01:57.519Z,52.30
2023-05-08T15:04:02.749Z,49.70
2023-05-08T15:06:09.490Z,49.50
2023-05-08T15:08:14.920Z,51.50
2023-05-08T15:10:23.106Z,52.20
2023-05-08T15:12:28.304Z,51.90
2023-05-08T15:14:33.821Z,48.20
2023-05-08T15:16:39.131Z,49.00
2023-05-08T15:18:44.982Z,49.70
2023-05-08T15:20:50.332Z,47.90
2023-05-08T15:22:55.423Z,48.60
2023-05-08T15:25:03.011Z,49.30
2023-05-08T15:27:11.936Z,46.00
2023-05-08T15:29:17.711Z,43.60
2023-05-08T15:31:23.397Z,44.90
2023-05-08T15:33:28.566Z,41.00
2023-05-08T15:35:33.897Z,40.90
2023-05-08T15:37:39.955Z,37.90
2023-05-08T15:39:46.239Z,33.80
2023-05-08T15:41:51.328Z,34.80
2023-05-08T15:43:58.996Z,28.80
2023-05-08T15:46:04.568Z,32.10
2023-05-08T15:48:10.065Z,28.50
2023-05-08T15:50:15.986Z,30.30
2023-05-08T15:52:21.340Z,29.70
2023-05-08T15:54:26.910Z,29.80
2023-05-08T15:56:32.813Z,29.80
2023-05-08T15:58:39.094Z,32.80
2023-05-08T16:00:46.771Z,32.30
2023-05-08T16:02:51.963Z,32.20
2023-05-08T16:04:57.193Z,33.70
2023-05-08T16:07:03.088Z,35.10
2023-05-08T16:09:08.448Z,35.60
2023-05-08T16:11:13.758Z,36.60
2023-05-08T16:13:19.093Z,35.50
2023-05-08T16:15:24.429Z,34.40
2023-05-08T16:17:32.150Z,34.20
2023-05-08T16:19:41.106Z,37.90
2023-05-08T16:21:49.316Z,38.20
2023-05-08T16:23:54.432Z,40.30
2023-05-08T16:26:00.471Z,36.50
2023-05-08T16:28:05.665Z,38.60
2023-05-08T16:30:13.094Z,42.40
2023-05-08T16:32:18.635Z,42.70
2023-05-08T16:34:26.306Z,43.40
2023-05-08T16:36:31.863Z,41.50
2023-05-08T16:38:36.964Z,41.50
2023-05-08T16:40:42.336Z,39.80
2023-05-08T16:42:47.420Z,42.40
2023-05-08T16:44:53.218Z,44.40
2023-05-08T16:46:58.667Z,41.30
2023-05-08T16:49:03.801Z,43.40
2023-05-08T16:51:11.740Z,42.20
2023-05-08T16:53:16.813Z,43.10
2023-05-08T16:55:22.253Z,43.90
2023-05-08T16:57:27.821Z,44.30
2023-05-08T16:59:32.987Z,43.60
2023-05-08T17:01:38.828Z,43.80
2023-05-08T17:03:43.992Z,42.50
2023-05-08T17:05:49.250Z,41.70
2023-05-08T17:07:56.931Z,43.00
2023-05-08T17:10:02.242Z,42.70
2023-05-08T17:12:08.426Z,43.30
2023-05-08T17:14:13.492Z,45.50
2023-05-08T17:16:20.481Z,42.20
2023-05-08T17:18:25.795Z,42.00
2023-05-08T17:20:31.371Z,40.50
2023-05-08T17:22:36.681Z,41.20
2023-05-08T17:24:44.349Z,40.30
2023-05-08T17:26:49.444Z,41.90
2023-05-08T17:28:54.491Z,41.00
2023-05-08T17:30:59.706Z,41.70
2023-05-08T17:33:05.057Z,42.50
2023-05-08T17:35:11.976Z,43.50
2023-05-08T17:37:17.094Z,45.20
2023-05-08T17:39:22.288Z,44.60
2023-05-08T17:41:29.965Z,47.40
2023-05-08T17:43:35.477Z,47.50
2023-05-08T17:45:40.770Z,48.00
2023-05-08T17:47:46.059Z,48.80
2023-05-08T17:49:51.132Z,49.60
2023-05-08T17:51:56.193Z,50.80
2023-05-08T17:54:01.433Z,54.40
2023-05-08T17:56:06.662Z,52.00
2023-05-08T17:58:14.480Z,51.80
2023-05-08T18:00:20.512Z,52.40
2023-05-08T18:02:25.863Z,49.70
2023-05-08T18:04:30.979Z,51.30
2023-05-08T18:06:36.084Z,51.60
2023-05-08T18:08:42.181Z,52.70
2023-05-08T18:10:47.354Z,53.80
2023-05-08T18:12:52.648Z,54.30
2023-05-08T18:15:01.006Z,54.10
2023-05-08T18:17:06.052Z,55.80
2023-05-08T18:19:11.100Z,58.00
2023-05-08T18:21:16.726Z,57.10
2023-05-08T18:23:22.322Z,57.70
2023-05-08T18:25:28.106Z,59.90
2023-05-08T18:27:34.549Z,60.70
2023-05-08T18:29:39.830Z,62.40
2023-05-08T18:31:47.471Z,64.40
2023-05-08T18:33:53.313Z,64.60
2023-05-08T18:35:59.270Z,64.00
2023-05-08T18:38:04.325Z,64.30
2023-05-08T18:40:13.150Z,65.70
2023-05-08T18:42:18.738Z,66.80
2023-05-08T18:44:24.573Z,67.70
2023-05-08T18:46:29.723Z,68.20
2023-05-08T18:48:37.692Z,69.70
2023-05-08T18:50:42.941Z,70.00
2023-05-08T18:52:48.193Z,71.00
2023-05-08T18:54:54.366Z,72.80
2023-05-08T18:56:59.557Z,74.20
2023-05-08T18:59:04.680Z,74.20
2023-05-08T19:01:10.244Z,73.40
2023-05-08T19:03:15.417Z,74.50
2023-05-08T19:05:23.895Z,75.10
2023-05-08T19:07:29.110Z,75.10
2023-05-08T19:09:34.197Z,75.70
2023-05-08T19:11:39.363Z,74.90
2023-05-08T19:13:44.627Z,76.10
2023-05-08T19:15:49.754Z,76.50
2023-05-08T19:17:55.007Z,77.40
2023-05-08T19:20:00.062Z,77.90
2023-05-08T19:22:07.727Z,78.80
2023-05-08T19:24:14.194Z,79.50
2023-05-08T19:26:19.389Z,79.30
2023-05-08T19:28:24.427Z,80.00
2023-05-08T19:30:29.486Z,80.40
2023-05-08T19:32:34.634Z,80.40
2023-05-08T19:34:39.812Z,80.70
2023-05-08T19:36:45.194Z,79.90
2023-05-08T19:38:52.816Z,80.40
2023-05-08T19:40:58.150Z,81.30
2023-05-08T19:43:03.281Z,81.20
2023-05-08T19:45:10.161Z,82.20
2023-05-08T19:47:15.936Z,82.10
2023-05-08T19:49:21.187Z,82.80
2023-05-08T19:51:26.875Z,83.20
2023-05-08T19:53:31.909Z,83.30
2023-05-08T19:55:39.825Z,83.60
2023-05-08T19:57:45.190Z,83.10
2023-05-08T19:59:50.273Z,83.60
2023-05-08T20:01:55.616Z,83.70
2023-05-08T20:04:01.147Z,83.70
2023-05-08T20:06:06.426Z,83.70
2023-05-08T20:08:11.849Z,84.10
2023-05-08T20:10:17.101Z,83.90
2023-05-08T20:12:24.867Z,83.50
2023-05-08T20:14:29.912Z,83.80
2023-05-08T20:16:35.117Z,83.50
2023-05-08T20:18:40.395Z,84.30
2023-05-08T20:20:46.220Z,84.00
2023-05-08T20:22:51.537Z,84.10
2023-05-08T20:24:56.600Z,84.80
2023-05-08T20:27:01.879Z,84.60
2023-05-08T20:29:09.830Z,85.00
2023-05-08T20:31:14.968Z,84.90
2023-05-08T20:33:20.848Z,85.00
2023-05-08T20:35:25.970Z,85.00
2023-05-08T20:37:31.055Z,85.00
2023-05-08T20:39:36.537Z,85.20
2023-05-08T20:41:41.955Z,85.40
2023-05-08T20:43:47.270Z,84.80
2023-05-08T20:45:54.987Z,85.30
2023-05-08T20:48:00.128Z,84.20
2023-05-08T20:50:05.445Z,85.30
2023-05-08T20:52:10.538Z,84.80
2023-05-08T20:54:15.646Z,85.10
2023-05-08T20:56:21.856Z,84.90
2023-05-08T20:58:27.169Z,84.50
2023-05-08T21:00:34.445Z,84.80
2023-05-08T21:02:42.910Z,85.50
2023-05-08T21:04:48.062Z,85.40
2023-05-08T21:06:53.421Z,85.00
2023-05-08T21:08:58.497Z,85.30
2023-05-08T21:11:04.742Z,85.30
2023-05-08T21:13:09.870Z,84.80
2023-05-08T21:15:15.459Z,85.90
2023-05-08T21:17:20.750Z,85.30
2023-05-08T21:19:28.786Z,85.40
2023-05-08T21:21:34.777Z,85.70
2023-05-08T21:23:39.834Z,85.70
2023-05-08T21:25:44.908Z,85.20
2023-05-08T21:27:49.951Z,85.50
2023-05-08T21:29:55.379Z,86.10
2023-05-08T21:32:01.202Z,85.60
2023-05-08T21:34:07.115Z,85.20
2023-05-08T21:36:15.327Z,85.40
2023-05-08T21:38:20.430Z,86.00
2023-05-08T21:40:25.768Z,86.40
2023-05-08T21:42:30.861Z,87.10
2023-05-08T21:44:35.945Z,87.00
2023-05-08T21:46:41.203Z,87.20
2023-05-08T21:48:46.308Z,87.40
2023-05-08T21:50:51.615Z,87.70
2023-05-08T21:52:59.307Z,87.80
2023-05-08T21:55:08.598Z,88.30
2023-05-08T21:57:13.771Z,88.20
2023-05-08T21:59:19.088Z,88.50
2023-05-08T22:01:24.257Z,88.40
2023-05-08T22:03:30.787Z,88.50
2023-05-08T22:05:36.001Z,88.60
2023-05-08T22:07:41.137Z,88.30
2023-05-08T22:09:48.787Z,88.10
2023-05-08T22:11:54.377Z,88.60
2023-05-08T22:13:59.430Z,89.30
2023-05-08T22:16:04.771Z,89.10
2023-05-08T22:18:09.893Z,89.30
2023-05-08T22:20:16.673Z,89.10
2023-05-08T22:22:22.040Z,89.10
2023-05-08T22:24:28.805Z,88.90
2023-05-08T22:26:36.535Z,89.40
2023-05-08T22:28:41.914Z,88.90
2023-05-08T22:30:47.016Z,89.30
2023-05-08T22:32:57.662Z,89.90
2023-05-08T22:35:02.954Z,89.50
2023-05-08T22:37:08.273Z,90.00
2023-05-08T22:39:13.382Z,90.20
2023-05-08T22:41:18.451Z,90.20
2023-05-08T22:43:26.367Z,91.70
2023-05-08T22:45:31.754Z,91.00
2023-05-08T22:47:37.927Z,91.10
2023-05-08T22:49:44.077Z,90.90
2023-05-08T22:51:50.510Z,91.10
2023-05-08T22:53:56.322Z,90.80
2023-05-08T22:56:01.381Z,91.10
2023-05-08T22:58:07.132Z,91.20
2023-05-08T23:00:16.713Z,91.50
2023-05-08T23:02:22.009Z,91.20
2023-05-08T23:04:27.096Z,91.60
2023-05-08T23:06:32.641Z,91.80
2023-05-08T23:08:37.999Z,91.40
2023-05-08T23:10:43.240Z,91.00
2023-05-08T23:12:48.494Z,91.40
2023-05-08T23:14:53.639Z,91.50
2023-05-08T23:17:01.344Z,91.50
2023-05-08T23:19:07.747Z,91.70
2023-05-08T23:21:12.867Z,91.50
2023-05-08T23:23:17.946Z,91.40
2023-05-08T23:25:23.041Z,91.70
2023-05-08T23:27:29.028Z,92.30
2023-05-08T23:29:34.632Z,92.00
2023-05-08T23:31:39.736Z,91.90
2023-05-08T23:33:47.449Z,91.20
2023-05-08T23:35:52.517Z,92.20
2023-05-08T23:37:57.568Z,91.40
2023-05-08T23:40:03.170Z,91.60
2023-05-08T23:42:08.441Z,91.70
2023-05-08T23:44:13.487Z,92.20
2023-05-08T23:46:18.627Z,92.50
2023-05-08T23:48:23.864Z,92.70
2023-05-08T23:50:31.909Z,92.90
2023-05-08T23:52:37.054Z,93.10
2023-05-08T23:54:42.332Z,92.50
2023-05-08T23:56:47.447Z,92.60
2023-05-08T23:58:52.541Z,92.50
